PWSweather.com
Personal Weather Stations
Station Observations
KUNGSHAMN
Vaejern, KungshamnSE 45643

VaejernKungshamnSE 45643

Lat: 58.376743, Lon: 11.258999

Elevation: 72

Station Type: Vantagepro2

http://damgaard.eu/vs

Latest ConditionsUpdated 7:15:05 PM GMT+01:01 Sunday, May 26, 2019
Currently Today's Max Today's Min Today's Average
Temperature 52.6°F11.4°C 61.1°F16.2°C 51.1°F10.6°C 53.8°F12.1°C
Dew Point 44.9°F7.2°C 48.6°F9.2°C 40.0°F4.4°C 45.1°F7.3°C
Winds 10.0 mph SW16.1 kmh SW 35.0 mph -56.3 kmh - - 20.7 mph 33.3 kmh
Wind Gusts 16.0 mph25.7 kmh 41.0 mph66.0 kmh - -
Humidity 75% 89% 51% 73%
Pressure 24.19 in819.2 mb 24.19 in819.2 mb 24.19 in819.2 mb -
Hour Temp Dew Point Humidity Winds Wind Gusts Pressure Precip Precip Rate Daily Precip Total
07:15 PM 52.6°F11.4°C 44.9°F7.2°C 75% 10.0 mph SW16.1 kmh SW 16.0 mph25.7 kmh 24.19 in819.2 mb 0.00 in0.0 mm 0.00 in0.0 mm 0.00 in0.0 mm
07:10 PM 52.6°F11.4°C 45.2°F7.3°C 76% 10.0 mph SW16.1 kmh SW 15.0 mph24.1 kmh 24.19 in819.2 mb 0.00 in0.0 mm 0.00 in0.0 mm 0.00 in0.0 mm
07:05 PM 52.7°F11.5°C 45.3°F7.4°C 76% 11.0 mph WSW17.7 kmh WSW 15.0 mph24.1 kmh 24.19 in819.2 mb 0.00 in0.0 mm 0.00 in0.0 mm 0.00 in0.0 mm
07:00 PM 52.8°F11.6°C 45.7°F7.6°C 77% 12.0 mph WSW19.3 kmh WSW 14.0 mph22.5 kmh 24.19 in819.2 mb 0.00 in0.0 mm 0.00 in0.0 mm 0.00 in0.0 mm
06:55 PM 52.8°F11.6°C 45.4°F7.4°C 76% 11.0 mph SW17.7 kmh SW 14.0 mph22.5 kmh 24.19 in819.2 mb 0.00 in0.0 mm 0.00 in0.0 mm 0.00 in0.0 mm
06:50 PM 53.0°F11.7°C 45.9°F7.7°C 77% 12.0 mph SW19.3 kmh SW 15.0 mph24.1 kmh 24.19 in819.2 mb 0.00 in0.0 mm 0.00 in0.0 mm 0.00 in0.0 mm
06:45 PM 52.7°F11.5°C 45.6°F7.6°C 77% 13.0 mph SW20.9 kmh SW 15.0 mph24.1 kmh 24.19 in819.2 mb 0.00 in0.0 mm 0.00 in0.0 mm 0.00 in0.0 mm
06:40 PM 52.6°F11.4°C 45.5°F7.5°C 77% 9.0 mph SW14.5 kmh SW 14.0 mph22.5 kmh 24.19 in819.2 mb 0.00 in0.0 mm 0.00 in0.0 mm 0.00 in0.0 mm
06:35 PM 52.6°F11.4°C 45.9°F7.7°C 78% 7.0 mph WSW11.3 kmh WSW 12.0 mph19.3 kmh 24.19 in819.2 mb 0.00 in0.0 mm 0.00 in0.0 mm 0.00 in0.0 mm
06:30 PM 52.7°F11.5°C 46.0°F7.8°C 78% 10.0 mph SW16.1 kmh SW 14.0 mph22.5 kmh 24.19 in819.2 mb 0.00 in0.0 mm 0.00 in0.0 mm 0.00 in0.0 mm
06:25 PM 52.8°F11.6°C 46.1°F7.8°C 78% 13.0 mph SW20.9 kmh SW 15.0 mph24.1 kmh 24.19 in819.2 mb 0.00 in0.0 mm 0.00 in0.0 mm 0.00 in0.0 mm
06:20 PM 52.8°F11.6°C 45.7°F7.6°C 77% 7.0 mph SW11.3 kmh SW 14.0 mph22.5 kmh 24.19 in819.2 mb 0.00 in0.0 mm 0.00 in0.0 mm 0.00 in0.0 mm
06:15 PM 53.0°F11.7°C 45.6°F7.6°C 76% 9.0 mph WSW14.5 kmh WSW 14.0 mph22.5 kmh 24.19 in819.2 mb 0.00 in0.0 mm 0.00 in0.0 mm 0.00 in0.0 mm
06:10 PM 53.2°F11.8°C 45.8°F7.7°C 76% 11.0 mph SW17.7 kmh SW 14.0 mph22.5 kmh 24.19 in819.2 mb 0.00 in0.0 mm 0.00 in0.0 mm 0.00 in0.0 mm
06:05 PM 53.6°F12.0°C 46.2°F7.9°C 76% 11.0 mph SW17.7 kmh SW 15.0 mph24.1 kmh 24.19 in819.2 mb 0.00 in0.0 mm 0.00 in0.0 mm 0.00 in0.0 mm
06:00 PM 54.0°F12.2°C 46.6°F8.1°C 76% 13.0 mph WSW20.9 kmh WSW 15.0 mph24.1 kmh 24.19 in819.2 mb 0.00 in0.0 mm 0.00 in0.0 mm 0.00 in0.0 mm
05:55 PM 53.8°F12.1°C 46.4°F8.0°C 76% 14.0 mph SW22.5 kmh SW 15.0 mph24.1 kmh 24.19 in819.2 mb 0.00 in0.0 mm 0.00 in0.0 mm 0.00 in0.0 mm
05:50 PM 54.0°F12.2°C 46.6°F8.1°C 76% 10.0 mph SSW16.1 kmh SSW 16.0 mph25.7 kmh 24.19 in819.2 mb 0.00 in0.0 mm 0.00 in0.0 mm 0.00 in0.0 mm
05:45 PM 54.1°F12.3°C 46.7°F8.2°C 76% 9.0 mph SW14.5 kmh SW 14.0 mph22.5 kmh 24.19 in819.2 mb 0.00 in0.0 mm 0.00 in0.0 mm 0.00 in0.0 mm
05:40 PM 54.2°F12.3°C 46.4°F8.0°C 75% 12.0 mph WSW19.3 kmh WSW 15.0 mph24.1 kmh 24.19 in819.2 mb 0.00 in0.0 mm 0.00 in0.0 mm 0.00 in0.0 mm
05:35 PM 54.1°F12.3°C 46.3°F7.9°C 75% 11.0 mph S17.7 kmh S 15.0 mph24.1 kmh 24.19 in819.2 mb 0.00 in0.0 mm 0.00 in0.0 mm 0.00 in0.0 mm
05:30 PM 53.6°F12.0°C 45.5°F7.5°C 74% 11.0 mph SW17.7 kmh SW 15.0 mph24.1 kmh 24.19 in819.2 mb 0.00 in0.0 mm 0.00 in0.0 mm 0.00 in0.0 mm
05:25 PM 54.0°F12.2°C 45.5°F7.5°C 73% 13.0 mph SSW20.9 kmh SSW 15.0 mph24.1 kmh 24.19 in819.2 mb 0.00 in0.0 mm 0.00 in0.0 mm 0.00 in0.0 mm
05:20 PM 54.5°F12.5°C 44.9°F7.2°C 70% 12.0 mph WSW19.3 kmh WSW 14.0 mph22.5 kmh 24.19 in819.2 mb 0.00 in0.0 mm 0.00 in0.0 mm 0.00 in0.0 mm
05:15 PM 54.5°F12.5°C 42.9°F6.1°C 65% 12.0 mph SSW19.3 kmh SSW 15.0 mph24.1 kmh 24.19 in819.2 mb 0.00 in0.0 mm 0.00 in0.0 mm 0.00 in0.0 mm
05:10 PM 54.8°F12.7°C 41.6°F5.3°C 61% 12.0 mph S19.3 kmh S 15.0 mph24.1 kmh 24.19 in819.2 mb 0.00 in0.0 mm 0.00 in0.0 mm 0.00 in0.0 mm
05:05 PM 54.9°F12.7°C 41.7°F5.4°C 61% 13.0 mph SW20.9 kmh SW 15.0 mph24.1 kmh 24.19 in819.2 mb 0.00 in0.0 mm 0.00 in0.0 mm 0.00 in0.0 mm
05:00 PM 55.0°F12.8°C 40.0°F4.4°C 57% 11.0 mph SSW17.7 kmh SSW 16.0 mph25.7 kmh 24.19 in819.2 mb 0.00 in0.0 mm 0.00 in0.0 mm 0.00 in0.0 mm
04:55 PM 55.5°F13.1°C 41.4°F5.2°C 59% 6.0 mph W9.7 kmh W 14.0 mph22.5 kmh 24.19 in819.2 mb 0.00 in0.0 mm 0.00 in0.0 mm 0.00 in0.0 mm
04:50 PM 55.4°F13.0°C 42.1°F5.6°C 61% 10.0 mph SSW16.1 kmh SSW 15.0 mph24.1 kmh 24.19 in819.2 mb 0.00 in0.0 mm 0.00 in0.0 mm 0.00 in0.0 mm
04:45 PM 55.0°F12.8°C 40.9°F4.9°C 59% 15.0 mph WSW24.1 kmh WSW 16.0 mph25.7 kmh 24.19 in819.2 mb 0.00 in0.0 mm 0.00 in0.0 mm 0.00 in0.0 mm
04:40 PM 54.5°F12.5°C 40.9°F4.9°C 60% 11.0 mph SW17.7 kmh SW 16.0 mph25.7 kmh 24.19 in819.2 mb 0.00 in0.0 mm 0.00 in0.0 mm 0.00 in0.0 mm
04:35 PM 54.8°F12.7°C 41.6°F5.3°C 61% 13.0 mph SW20.9 kmh SW 15.0 mph24.1 kmh 24.19 in819.2 mb 0.00 in0.0 mm 0.00 in0.0 mm 0.00 in0.0 mm
04:30 PM 54.7°F12.6°C 41.9°F5.5°C 62% 9.0 mph SSW14.5 kmh SSW 15.0 mph24.1 kmh 24.19 in819.2 mb 0.00 in0.0 mm 0.00 in0.0 mm 0.00 in0.0 mm
04:25 PM 54.7°F12.6°C 42.3°F5.7°C 63% 13.0 mph SW20.9 kmh SW 17.0 mph27.4 kmh 24.19 in819.2 mb 0.00 in0.0 mm 0.00 in0.0 mm 0.00 in0.0 mm
04:20 PM 54.8°F12.7°C 42.0°F5.6°C 62% 15.0 mph SW24.1 kmh SW 16.0 mph25.7 kmh 24.19 in819.2 mb 0.00 in0.0 mm 0.00 in0.0 mm 0.00 in0.0 mm
04:15 PM 54.8°F12.7°C 42.0°F5.6°C 62% 11.0 mph W17.7 kmh W 16.0 mph25.7 kmh 24.19 in819.2 mb 0.00 in0.0 mm 0.00 in0.0 mm 0.00 in0.0 mm
04:10 PM 55.0°F12.8°C 42.2°F5.7°C 62% 14.0 mph WSW22.5 kmh WSW 17.0 mph27.4 kmh 24.19 in819.2 mb 0.00 in0.0 mm 0.00 in0.0 mm 0.00 in0.0 mm
04:05 PM 54.9°F12.7°C 41.2°F5.1°C 60% 16.0 mph WSW25.7 kmh WSW 17.0 mph27.4 kmh 24.19 in819.2 mb 0.00 in0.0 mm 0.00 in0.0 mm 0.00 in0.0 mm
04:00 PM 54.9°F12.7°C 41.7°F5.4°C 61% 13.0 mph WSW20.9 kmh WSW 18.0 mph29.0 kmh 24.19 in819.2 mb 0.00 in0.0 mm 0.00 in0.0 mm 0.00 in0.0 mm
03:55 PM 55.8°F13.2°C 42.1°F5.6°C 60% 12.0 mph WSW19.3 kmh WSW 16.0 mph25.7 kmh 24.19 in819.2 mb 0.00 in0.0 mm 0.00 in0.0 mm 0.00 in0.0 mm
03:50 PM 56.8°F13.8°C 43.4°F6.3°C 61% 9.0 mph WSW14.5 kmh WSW 16.0 mph25.7 kmh 24.19 in819.2 mb 0.00 in0.0 mm 0.00 in0.0 mm 0.00 in0.0 mm
03:45 PM 57.1°F13.9°C 42.4°F5.8°C 58% 14.0 mph W22.5 kmh W 15.0 mph24.1 kmh 24.19 in819.2 mb 0.00 in0.0 mm 0.00 in0.0 mm 0.00 in0.0 mm
03:40 PM 59.3°F15.2°C 44.0°F6.7°C 57% 8.0 mph WNW12.9 kmh WNW 14.0 mph22.5 kmh 24.19 in819.2 mb 0.00 in0.0 mm 0.00 in0.0 mm 0.00 in0.0 mm
03:35 PM 59.2°F15.1°C 43.9°F6.6°C 57% 6.0 mph WSW9.7 kmh WSW 13.0 mph20.9 kmh 24.19 in819.2 mb 0.00 in0.0 mm 0.00 in0.0 mm 0.00 in0.0 mm
03:30 PM 59.5°F15.3°C 43.3°F6.3°C 55% 5.0 mph WNW8.0 kmh WNW 13.0 mph20.9 kmh 24.19 in819.2 mb 0.00 in0.0 mm 0.00 in0.0 mm 0.00 in0.0 mm
03:25 PM 59.9°F15.5°C 43.6°F6.4°C 55% 13.0 mph WNW20.9 kmh WNW 13.0 mph20.9 kmh 24.19 in819.2 mb 0.00 in0.0 mm 0.00 in0.0 mm 0.00 in0.0 mm
03:20 PM 60.2°F15.7°C 43.4°F6.3°C 54% 12.0 mph WNW19.3 kmh WNW 14.0 mph22.5 kmh 24.19 in819.2 mb 0.00 in0.0 mm 0.00 in0.0 mm 0.00 in0.0 mm
03:15 PM 60.5°F15.8°C 42.2°F5.7°C 51% 9.0 mph WNW14.5 kmh WNW 13.0 mph20.9 kmh 24.19 in819.2 mb 0.00 in0.0 mm 0.00 in0.0 mm 0.00 in0.0 mm
03:10 PM 60.8°F16.0°C 42.5°F5.8°C 51% 14.0 mph WNW22.5 kmh WNW 17.0 mph27.4 kmh 24.19 in819.2 mb 0.00 in0.0 mm 0.00 in0.0 mm 0.00 in0.0 mm
03:05 PM 61.0°F16.1°C 43.2°F6.2°C 52% 14.0 mph NW22.5 kmh NW 15.0 mph24.1 kmh 24.19 in819.2 mb 0.00 in0.0 mm 0.00 in0.0 mm 0.00 in0.0 mm
03:00 PM 61.1°F16.2°C 43.3°F6.3°C 52% 11.0 mph WNW17.7 kmh WNW 16.0 mph25.7 kmh 24.19 in819.2 mb 0.00 in0.0 mm 0.00 in0.0 mm 0.00 in0.0 mm
02:55 PM 60.7°F15.9°C 42.4°F5.8°C 51% 10.0 mph NW16.1 kmh NW 18.0 mph29.0 kmh 24.19 in819.2 mb 0.00 in0.0 mm 0.00 in0.0 mm 0.00 in0.0 mm
02:50 PM 60.1°F15.6°C 43.3°F6.3°C 54% 16.0 mph NW25.7 kmh NW 17.0 mph27.4 kmh 24.19 in819.2 mb 0.00 in0.0 mm 0.00 in0.0 mm 0.00 in0.0 mm
02:45 PM 58.4°F14.7°C 42.7°F5.9°C 56% 9.0 mph NW14.5 kmh NW 17.0 mph27.4 kmh 24.19 in819.2 mb 0.00 in0.0 mm 0.00 in0.0 mm 0.00 in0.0 mm
02:40 PM 57.5°F14.2°C 40.5°F4.7°C 53% 12.0 mph NNW19.3 kmh NNW 20.0 mph32.2 kmh 24.19 in819.2 mb 0.00 in0.0 mm 0.00 in0.0 mm 0.00 in0.0 mm
02:35 PM 58.0°F14.4°C 40.9°F4.9°C 53% 16.0 mph NNW25.7 kmh NNW 22.0 mph35.4 kmh 24.19 in819.2 mb 0.00 in0.0 mm 0.00 in0.0 mm 0.00 in0.0 mm
02:30 PM 57.7°F14.3°C 41.1°F5.1°C 54% 17.0 mph NW27.4 kmh NW 19.0 mph30.6 kmh 24.19 in819.2 mb 0.00 in0.0 mm 0.00 in0.0 mm 0.00 in0.0 mm
02:25 PM 58.1°F14.5°C 41.5°F5.3°C 54% 17.0 mph NW27.4 kmh NW 18.0 mph29.0 kmh 24.19 in819.2 mb 0.00 in0.0 mm 0.00 in0.0 mm 0.00 in0.0 mm
02:20 PM 58.0°F14.4°C 41.4°F5.2°C 54% 16.0 mph NNW25.7 kmh NNW 19.0 mph30.6 kmh 24.19 in819.2 mb 0.00 in0.0 mm 0.00 in0.0 mm 0.00 in0.0 mm
02:15 PM 57.8°F14.3°C 41.7°F5.4°C 55% 16.0 mph NW25.7 kmh NW 19.0 mph30.6 kmh 24.19 in819.2 mb 0.00 in0.0 mm 0.00 in0.0 mm 0.00 in0.0 mm
02:10 PM 57.4°F14.1°C 40.4°F4.7°C 53% 16.0 mph NNW25.7 kmh NNW 20.0 mph32.2 kmh 24.19 in819.2 mb 0.00 in0.0 mm 0.00 in0.0 mm 0.00 in0.0 mm
02:05 PM 57.0°F13.9°C 41.4°F5.2°C 56% 15.0 mph NW24.1 kmh NW 19.0 mph30.6 kmh 24.19 in819.2 mb 0.00 in0.0 mm 0.00 in0.0 mm 0.00 in0.0 mm
02:00 PM 56.8°F13.8°C 41.7°F5.4°C 57% 15.0 mph NNW24.1 kmh NNW 21.0 mph33.8 kmh 24.19 in819.2 mb 0.00 in0.0 mm 0.00 in0.0 mm 0.00 in0.0 mm
01:55 PM 55.9°F13.3°C 40.8°F4.9°C 57% 21.0 mph NNW33.8 kmh NNW 24.0 mph38.6 kmh 24.19 in819.2 mb 0.00 in0.0 mm 0.00 in0.0 mm 0.00 in0.0 mm
01:50 PM 56.3°F13.5°C 40.8°F4.9°C 56% 17.0 mph NW27.4 kmh NW 25.0 mph40.2 kmh 24.19 in819.2 mb 0.00 in0.0 mm 0.00 in0.0 mm 0.00 in0.0 mm
01:45 PM 56.2°F13.4°C 41.6°F5.3°C 58% 19.0 mph NNW30.6 kmh NNW 26.0 mph41.8 kmh 24.19 in819.2 mb 0.00 in0.0 mm 0.00 in0.0 mm 0.00 in0.0 mm
01:40 PM 55.6°F13.1°C 41.4°F5.2°C 59% 13.0 mph NW20.9 kmh NW 23.0 mph37.0 kmh 24.19 in819.2 mb 0.00 in0.0 mm 0.00 in0.0 mm 0.00 in0.0 mm
01:35 PM 55.7°F13.2°C 42.0°F5.6°C 60% 20.0 mph N32.2 kmh N 26.0 mph41.8 kmh 24.19 in819.2 mb 0.00 in0.0 mm 0.00 in0.0 mm 0.00 in0.0 mm
01:30 PM 56.3°F13.5°C 41.2°F5.1°C 57% 20.0 mph NNW32.2 kmh NNW 24.0 mph38.6 kmh 24.19 in819.2 mb 0.00 in0.0 mm 0.00 in0.0 mm 0.00 in0.0 mm
01:25 PM 56.8°F13.8°C 43.0°F6.1°C 60% 14.0 mph NW22.5 kmh NW 24.0 mph38.6 kmh 24.19 in819.2 mb 0.00 in0.0 mm 0.00 in0.0 mm 0.00 in0.0 mm
01:20 PM 57.3°F14.1°C 43.5°F6.4°C 60% 24.0 mph NNW38.6 kmh NNW 24.0 mph38.6 kmh 24.19 in819.2 mb 0.00 in0.0 mm 0.00 in0.0 mm 0.00 in0.0 mm
01:15 PM 56.5°F13.6°C 43.6°F6.4°C 62% 13.0 mph NNW20.9 kmh NNW 23.0 mph37.0 kmh 24.19 in819.2 mb 0.00 in0.0 mm 0.00 in0.0 mm 0.00 in0.0 mm
01:10 PM 56.9°F13.8°C 42.2°F5.7°C 58% 21.0 mph NW33.8 kmh NW 24.0 mph38.6 kmh 24.19 in819.2 mb 0.00 in0.0 mm 0.00 in0.0 mm 0.00 in0.0 mm
01:05 PM 57.0°F13.9°C 42.8°F6.0°C 59% 20.0 mph NW32.2 kmh NW 23.0 mph37.0 kmh 24.19 in819.2 mb 0.00 in0.0 mm 0.00 in0.0 mm 0.00 in0.0 mm
12:55 PM 55.8°F13.2°C 42.5°F5.8°C 61% 22.0 mph NW35.4 kmh NW 23.0 mph37.0 kmh 24.19 in819.2 mb 0.00 in0.0 mm 0.00 in0.0 mm 0.00 in0.0 mm
12:50 PM 57.3°F14.1°C 43.0°F6.1°C 59% 18.0 mph NNW29.0 kmh NNW 22.0 mph35.4 kmh 24.19 in819.2 mb 0.00 in0.0 mm 0.00 in0.0 mm 0.00 in0.0 mm
12:45 PM 56.6°F13.7°C 43.3°F6.3°C 61% 20.0 mph NW32.2 kmh NW 21.0 mph33.8 kmh 24.19 in819.2 mb 0.00 in0.0 mm 0.00 in0.0 mm 0.00 in0.0 mm
12:40 PM 56.0°F13.3°C 43.9°F6.6°C 64% 14.0 mph NW22.5 kmh NW 23.0 mph37.0 kmh 24.19 in819.2 mb 0.00 in0.0 mm 0.00 in0.0 mm 0.00 in0.0 mm
12:35 PM 56.6°F13.7°C 42.8°F6.0°C 60% 20.0 mph NW32.2 kmh NW 24.0 mph38.6 kmh 24.19 in819.2 mb 0.00 in0.0 mm 0.00 in0.0 mm 0.00 in0.0 mm
12:30 PM 55.5°F13.1°C 44.7°F7.1°C 67% 19.0 mph NW30.6 kmh NW 22.0 mph35.4 kmh 24.19 in819.2 mb 0.00 in0.0 mm 0.00 in0.0 mm 0.00 in0.0 mm
12:25 PM 55.3°F12.9°C 43.3°F6.3°C 64% 22.0 mph NNW35.4 kmh NNW 23.0 mph37.0 kmh 24.19 in819.2 mb 0.00 in0.0 mm 0.00 in0.0 mm 0.00 in0.0 mm
12:20 PM 55.2°F12.9°C 43.6°F6.4°C 65% 15.0 mph NW24.1 kmh NW 23.0 mph37.0 kmh 24.19 in819.2 mb 0.00 in0.0 mm 0.00 in0.0 mm 0.00 in0.0 mm
12:15 PM 55.2°F12.9°C 44.4°F6.9°C 67% 16.0 mph NW25.7 kmh NW 23.0 mph37.0 kmh 24.19 in819.2 mb 0.00 in0.0 mm 0.00 in0.0 mm 0.00 in0.0 mm
12:10 PM 54.7°F12.6°C 43.9°F6.6°C 67% 18.0 mph NW29.0 kmh NW 23.0 mph37.0 kmh 24.19 in819.2 mb 0.00 in0.0 mm 0.00 in0.0 mm 0.00 in0.0 mm
12:05 PM 54.0°F12.2°C 43.2°F6.2°C 67% 17.0 mph NW27.4 kmh NW 26.0 mph41.8 kmh 24.19 in819.2 mb 0.00 in0.0 mm 0.00 in0.0 mm 0.00 in0.0 mm
12:00 PM 53.5°F11.9°C 42.8°F6.0°C 67% 21.0 mph N33.8 kmh N 27.0 mph43.5 kmh 24.19 in819.2 mb 0.00 in0.0 mm 0.00 in0.0 mm 0.00 in0.0 mm
11:55 AM 54.1°F12.3°C 42.9°F6.1°C 66% 23.0 mph NNW37.0 kmh NNW 29.0 mph46.7 kmh 24.19 in819.2 mb 0.00 in0.0 mm 0.00 in0.0 mm 0.00 in0.0 mm
11:50 AM 54.9°F12.7°C 43.7°F6.5°C 66% 15.0 mph N24.1 kmh N 27.0 mph43.5 kmh 24.19 in819.2 mb 0.00 in0.0 mm 0.00 in0.0 mm 0.00 in0.0 mm
11:45 AM 55.9°F13.3°C 45.8°F7.7°C 69% 21.0 mph NW33.8 kmh NW 38.0 mph61.2 kmh 24.19 in819.2 mb 0.00 in0.0 mm 0.00 in0.0 mm 0.00 in0.0 mm
11:40 AM 55.8°F13.2°C 46.1°F7.8°C 70% 21.0 mph W33.8 kmh W 28.0 mph45.1 kmh 24.19 in819.2 mb 0.00 in0.0 mm 0.00 in0.0 mm 0.00 in0.0 mm
11:35 AM 56.0°F13.3°C 45.9°F7.7°C 69% 24.0 mph W38.6 kmh W 29.0 mph46.7 kmh 24.19 in819.2 mb 0.00 in0.0 mm 0.00 in0.0 mm 0.00 in0.0 mm
11:30 AM 55.9°F13.3°C 46.2°F7.9°C 70% 24.0 mph W38.6 kmh W 30.0 mph48.3 kmh 24.19 in819.2 mb 0.00 in0.0 mm 0.00 in0.0 mm 0.00 in0.0 mm
11:25 AM 55.3°F12.9°C 46.7°F8.2°C 73% 24.0 mph W38.6 kmh W 31.0 mph49.9 kmh 24.19 in819.2 mb 0.00 in0.0 mm 0.00 in0.0 mm 0.00 in0.0 mm
11:20 AM 54.3°F12.4°C 46.5°F8.1°C 75% 26.0 mph W41.8 kmh W 29.0 mph46.7 kmh 24.19 in819.2 mb 0.00 in0.0 mm 0.00 in0.0 mm 0.00 in0.0 mm
11:15 AM 54.6°F12.6°C 46.4°F8.0°C 74% 24.0 mph W38.6 kmh W 29.0 mph46.7 kmh 24.19 in819.2 mb 0.00 in0.0 mm 0.00 in0.0 mm 0.00 in0.0 mm
11:10 AM 54.6°F12.6°C 45.7°F7.6°C 72% 23.0 mph W37.0 kmh W 30.0 mph48.3 kmh 24.19 in819.2 mb 0.00 in0.0 mm 0.00 in0.0 mm 0.00 in0.0 mm
11:05 AM 54.9°F12.7°C 46.4°F8.0°C 73% 21.0 mph WNW33.8 kmh WNW 29.0 mph46.7 kmh 24.19 in819.2 mb 0.00 in0.0 mm 0.00 in0.0 mm 0.00 in0.0 mm
11:00 AM 54.7°F12.6°C 45.8°F7.7°C 72% 19.0 mph WNW30.6 kmh WNW 30.0 mph48.3 kmh 24.19 in819.2 mb 0.00 in0.0 mm 0.00 in0.0 mm 0.00 in0.0 mm
10:55 AM 54.7°F12.6°C 45.8°F7.7°C 72% 17.0 mph W27.4 kmh W 30.0 mph48.3 kmh 24.19 in819.2 mb 0.00 in0.0 mm 0.00 in0.0 mm 0.00 in0.0 mm
10:50 AM 54.3°F12.4°C 45.4°F7.4°C 72% 18.0 mph WSW29.0 kmh WSW 29.0 mph46.7 kmh 24.19 in819.2 mb 0.00 in0.0 mm 0.00 in0.0 mm 0.00 in0.0 mm
10:45 AM 54.6°F12.6°C 45.0°F7.2°C 70% 23.0 mph WSW37.0 kmh WSW 27.0 mph43.5 kmh 24.19 in819.2 mb 0.00 in0.0 mm 0.00 in0.0 mm 0.00 in0.0 mm
10:40 AM 54.9°F12.7°C 44.9°F7.2°C 69% 17.0 mph NW27.4 kmh NW 31.0 mph49.9 kmh 24.19 in819.2 mb 0.00 in0.0 mm 0.00 in0.0 mm 0.00 in0.0 mm
10:35 AM 54.3°F12.4°C 45.0°F7.2°C 71% 24.0 mph W38.6 kmh W 32.0 mph51.5 kmh 24.19 in819.2 mb 0.00 in0.0 mm 0.00 in0.0 mm 0.00 in0.0 mm
10:30 AM 54.5°F12.5°C 44.9°F7.2°C 70% 27.0 mph W43.5 kmh W 33.0 mph53.1 kmh 24.19 in819.2 mb 0.00 in0.0 mm 0.00 in0.0 mm 0.00 in0.0 mm
10:25 AM 54.5°F12.5°C 44.5°F6.9°C 69% 24.0 mph WNW38.6 kmh WNW 32.0 mph51.5 kmh 24.19 in819.2 mb 0.00 in0.0 mm 0.00 in0.0 mm 0.00 in0.0 mm
10:20 AM 54.3°F12.4°C 44.3°F6.8°C 69% 25.0 mph W40.2 kmh W 33.0 mph53.1 kmh 24.19 in819.2 mb 0.00 in0.0 mm 0.00 in0.0 mm 0.00 in0.0 mm
10:15 AM 54.6°F12.6°C 44.6°F7.0°C 69% 29.0 mph W46.7 kmh W 31.0 mph49.9 kmh 24.19 in819.2 mb 0.00 in0.0 mm 0.00 in0.0 mm 0.00 in0.0 mm
10:10 AM 54.5°F12.5°C 44.1°F6.7°C 68% 27.0 mph W43.5 kmh W 32.0 mph51.5 kmh 24.19 in819.2 mb 0.00 in0.0 mm 0.00 in0.0 mm 0.00 in0.0 mm
10:05 AM 54.2°F12.3°C 43.4°F6.3°C 67% 16.0 mph W25.7 kmh W 28.0 mph45.1 kmh 24.19 in819.2 mb 0.00 in0.0 mm 0.00 in0.0 mm 0.00 in0.0 mm
10:00 AM 54.8°F12.7°C 43.6°F6.4°C 66% 25.0 mph W40.2 kmh W 31.0 mph49.9 kmh 24.19 in819.2 mb 0.00 in0.0 mm 0.00 in0.0 mm 0.00 in0.0 mm
09:55 AM 54.9°F12.7°C 43.3°F6.3°C 65% 24.0 mph WSW38.6 kmh WSW 29.0 mph46.7 kmh 24.19 in819.2 mb 0.00 in0.0 mm 0.00 in0.0 mm 0.00 in0.0 mm
09:50 AM 54.9°F12.7°C 43.7°F6.5°C 66% 29.0 mph WNW46.7 kmh WNW 30.0 mph48.3 kmh 24.19 in819.2 mb 0.00 in0.0 mm 0.00 in0.0 mm 0.00 in0.0 mm
09:45 AM 54.8°F12.7°C 43.2°F6.2°C 65% 30.0 mph W48.3 kmh W 30.0 mph48.3 kmh 24.19 in819.2 mb 0.00 in0.0 mm 0.00 in0.0 mm 0.00 in0.0 mm
09:40 AM 54.3°F12.4°C 43.1°F6.2°C 66% 24.0 mph WNW38.6 kmh WNW 30.0 mph48.3 kmh 24.19 in819.2 mb 0.00 in0.0 mm 0.00 in0.0 mm 0.00 in0.0 mm
09:35 AM 54.3°F12.4°C 43.5°F6.4°C 67% 27.0 mph WNW43.5 kmh WNW 30.0 mph48.3 kmh 24.19 in819.2 mb 0.00 in0.0 mm 0.00 in0.0 mm 0.00 in0.0 mm
09:30 AM 54.7°F12.6°C 44.3°F6.8°C 68% 30.0 mph W48.3 kmh W 30.0 mph48.3 kmh 24.19 in819.2 mb 0.00 in0.0 mm 0.00 in0.0 mm 0.00 in0.0 mm
09:25 AM 54.7°F12.6°C 44.3°F6.8°C 68% 21.0 mph W33.8 kmh W 28.0 mph45.1 kmh 24.19 in819.2 mb 0.00 in0.0 mm 0.00 in0.0 mm 0.00 in0.0 mm
09:20 AM 54.5°F12.5°C 44.5°F6.9°C 69% 18.0 mph WNW29.0 kmh WNW 30.0 mph48.3 kmh 24.19 in819.2 mb 0.00 in0.0 mm 0.00 in0.0 mm 0.00 in0.0 mm
09:15 AM 54.4°F12.4°C 44.8°F7.1°C 70% 22.0 mph W35.4 kmh W 29.0 mph46.7 kmh 24.19 in819.2 mb 0.00 in0.0 mm 0.00 in0.0 mm 0.00 in0.0 mm
09:10 AM 53.9°F12.2°C 44.3°F6.8°C 70% 25.0 mph W40.2 kmh W 32.0 mph51.5 kmh 24.19 in819.2 mb 0.00 in0.0 mm 0.00 in0.0 mm 0.00 in0.0 mm
09:05 AM 53.8°F12.1°C 44.6°F7.0°C 71% 23.0 mph NW37.0 kmh NW 30.0 mph48.3 kmh 24.19 in819.2 mb 0.00 in0.0 mm 0.00 in0.0 mm 0.00 in0.0 mm
09:00 AM 53.8°F12.1°C 44.6°F7.0°C 71% 27.0 mph WNW43.5 kmh WNW 30.0 mph48.3 kmh 24.19 in819.2 mb 0.00 in0.0 mm 0.00 in0.0 mm 0.00 in0.0 mm
08:55 AM 53.7°F12.1°C 44.8°F7.1°C 72% 24.0 mph WNW38.6 kmh WNW 33.0 mph53.1 kmh 24.19 in819.2 mb 0.00 in0.0 mm 0.00 in0.0 mm 0.00 in0.0 mm
08:50 AM 53.6°F12.0°C 44.4°F6.9°C 71% 27.0 mph W43.5 kmh W 31.0 mph49.9 kmh 24.19 in819.2 mb 0.00 in0.0 mm 0.00 in0.0 mm 0.00 in0.0 mm
08:45 AM 53.3°F11.8°C 44.5°F6.9°C 72% 28.0 mph WNW45.1 kmh WNW 33.0 mph53.1 kmh 24.19 in819.2 mb 0.00 in0.0 mm 0.00 in0.0 mm 0.00 in0.0 mm
08:40 AM 53.4°F11.9°C 44.6°F7.0°C 72% 13.0 mph NW20.9 kmh NW 33.0 mph53.1 kmh 24.19 in819.2 mb 0.00 in0.0 mm 0.00 in0.0 mm 0.00 in0.0 mm
08:35 AM 53.3°F11.8°C 44.5°F6.9°C 72% 27.0 mph W43.5 kmh W 35.0 mph56.3 kmh 24.19 in819.2 mb 0.00 in0.0 mm 0.00 in0.0 mm 0.00 in0.0 mm
08:30 AM 53.0°F11.7°C 43.8°F6.6°C 71% 22.0 mph W35.4 kmh W 33.0 mph53.1 kmh 24.19 in819.2 mb 0.00 in0.0 mm 0.00 in0.0 mm 0.00 in0.0 mm
08:25 AM 52.8°F11.6°C 43.6°F6.4°C 71% 28.0 mph W45.1 kmh W 33.0 mph53.1 kmh 24.19 in819.2 mb 0.00 in0.0 mm 0.00 in0.0 mm 0.00 in0.0 mm
08:20 AM 53.2°F11.8°C 44.0°F6.7°C 71% 22.0 mph WSW35.4 kmh WSW 31.0 mph49.9 kmh 24.19 in819.2 mb 0.00 in0.0 mm 0.00 in0.0 mm 0.00 in0.0 mm
08:15 AM 53.2°F11.8°C 44.4°F6.9°C 72% 20.0 mph WNW32.2 kmh WNW 32.0 mph51.5 kmh 24.19 in819.2 mb 0.00 in0.0 mm 0.00 in0.0 mm 0.00 in0.0 mm
08:10 AM 53.0°F11.7°C 43.8°F6.6°C 71% 22.0 mph WNW35.4 kmh WNW 33.0 mph53.1 kmh 24.19 in819.2 mb 0.00 in0.0 mm 0.00 in0.0 mm 0.00 in0.0 mm
08:05 AM 52.9°F11.6°C 44.4°F6.9°C 73% 21.0 mph W33.8 kmh W 33.0 mph53.1 kmh 24.19 in819.2 mb 0.00 in0.0 mm 0.00 in0.0 mm 0.00 in0.0 mm
08:00 AM 53.1°F11.7°C 45.0°F7.2°C 74% 27.0 mph W43.5 kmh W 30.0 mph48.3 kmh 24.19 in819.2 mb 0.00 in0.0 mm 0.00 in0.0 mm 0.00 in0.0 mm
07:55 AM 52.9°F11.6°C 44.1°F6.7°C 72% 20.0 mph WSW32.2 kmh WSW 33.0 mph53.1 kmh 24.19 in819.2 mb 0.00 in0.0 mm 0.00 in0.0 mm 0.00 in0.0 mm
07:50 AM 52.8°F11.6°C 44.0°F6.7°C 72% 18.0 mph W29.0 kmh W 32.0 mph51.5 kmh 24.19 in819.2 mb 0.00 in0.0 mm 0.00 in0.0 mm 0.00 in0.0 mm
07:45 AM 52.8°F11.6°C 44.3°F6.8°C 73% 21.0 mph W33.8 kmh W 33.0 mph53.1 kmh 24.19 in819.2 mb 0.00 in0.0 mm 0.00 in0.0 mm 0.00 in0.0 mm
07:40 AM 52.9°F11.6°C 44.8°F7.1°C 74% 27.0 mph WSW43.5 kmh WSW 34.0 mph54.7 kmh 24.19 in819.2 mb 0.00 in0.0 mm 0.00 in0.0 mm 0.00 in0.0 mm
07:35 AM 52.4°F11.3°C 44.0°F6.7°C 73% 33.0 mph W53.1 kmh W 35.0 mph56.3 kmh 24.19 in819.2 mb 0.00 in0.0 mm 0.00 in0.0 mm 0.00 in0.0 mm
07:30 AM 52.3°F11.3°C 43.9°F6.6°C 73% 32.0 mph W51.5 kmh W 36.0 mph57.9 kmh 24.19 in819.2 mb 0.00 in0.0 mm 0.00 in0.0 mm 0.00 in0.0 mm
07:25 AM 52.3°F11.3°C 44.6°F7.0°C 75% 31.0 mph W49.9 kmh W 36.0 mph57.9 kmh 24.19 in819.2 mb 0.00 in0.0 mm 0.00 in0.0 mm 0.00 in0.0 mm
07:20 AM 52.3°F11.3°C 44.6°F7.0°C 75% 28.0 mph W45.1 kmh W 33.0 mph53.1 kmh 24.19 in819.2 mb 0.00 in0.0 mm 0.00 in0.0 mm 0.00 in0.0 mm
07:15 AM 52.2°F11.2°C 44.5°F6.9°C 75% 25.0 mph WNW40.2 kmh WNW 35.0 mph56.3 kmh 24.19 in819.2 mb 0.00 in0.0 mm 0.00 in0.0 mm 0.00 in0.0 mm
07:10 AM 52.2°F11.2°C 44.8°F7.1°C 76% 28.0 mph W45.1 kmh W 36.0 mph57.9 kmh 24.19 in819.2 mb 0.00 in0.0 mm 0.00 in0.0 mm 0.00 in0.0 mm
07:05 AM 52.4°F11.3°C 45.7°F7.6°C 78% 33.0 mph W53.1 kmh W 37.0 mph59.5 kmh 24.19 in819.2 mb 0.00 in0.0 mm 0.00 in0.0 mm 0.00 in0.0 mm
07:00 AM 52.5°F11.4°C 45.1°F7.3°C 76% 28.0 mph W45.1 kmh W 33.0 mph53.1 kmh 24.19 in819.2 mb 0.00 in0.0 mm 0.00 in0.0 mm 0.00 in0.0 mm
06:55 AM 52.6°F11.4°C 45.9°F7.7°C 78% 22.0 mph WNW35.4 kmh WNW 30.0 mph48.3 kmh 24.19 in819.2 mb 0.00 in0.0 mm 0.00 in0.0 mm 0.00 in0.0 mm
06:50 AM 52.4°F11.3°C 46.0°F7.8°C 79% 29.0 mph WNW46.7 kmh WNW 31.0 mph49.9 kmh 24.19 in819.2 mb 0.00 in0.0 mm 0.00 in0.0 mm 0.00 in0.0 mm
06:45 AM 52.4°F11.3°C 46.4°F8.0°C 80% 23.0 mph W37.0 kmh W 29.0 mph46.7 kmh 24.19 in819.2 mb 0.00 in0.0 mm 0.00 in0.0 mm 0.00 in0.0 mm
06:40 AM 52.2°F11.2°C 45.8°F7.7°C 79% 22.0 mph WNW35.4 kmh WNW 29.0 mph46.7 kmh 24.19 in819.2 mb 0.00 in0.0 mm 0.00 in0.0 mm 0.00 in0.0 mm
06:35 AM 52.2°F11.2°C 45.8°F7.7°C 79% 17.0 mph WSW27.4 kmh WSW 32.0 mph51.5 kmh 24.19 in819.2 mb 0.00 in0.0 mm 0.00 in0.0 mm 0.00 in0.0 mm
06:30 AM 52.0°F11.1°C 45.6°F7.6°C 79% 20.0 mph WNW32.2 kmh WNW 35.0 mph56.3 kmh 24.19 in819.2 mb 0.00 in0.0 mm 0.00 in0.0 mm 0.00 in0.0 mm
06:25 AM 51.9°F11.1°C 45.9°F7.7°C 80% 29.0 mph W46.7 kmh W 34.0 mph54.7 kmh 24.19 in819.2 mb 0.00 in0.0 mm 0.00 in0.0 mm 0.00 in0.0 mm
06:20 AM 51.8°F11.0°C 45.8°F7.7°C 80% 18.0 mph W29.0 kmh W 33.0 mph53.1 kmh 24.19 in819.2 mb 0.00 in0.0 mm 0.00 in0.0 mm 0.00 in0.0 mm
06:15 AM 51.8°F11.0°C 45.4°F7.4°C 79% 16.0 mph NW25.7 kmh NW 36.0 mph57.9 kmh 24.19 in819.2 mb 0.00 in0.0 mm 0.00 in0.0 mm 0.00 in0.0 mm
06:10 AM 51.8°F11.0°C 45.8°F7.7°C 80% 26.0 mph W41.8 kmh W 35.0 mph56.3 kmh 24.19 in819.2 mb 0.00 in0.0 mm 0.00 in0.0 mm 0.00 in0.0 mm
06:05 AM 51.8°F11.0°C 46.1°F7.8°C 81% 15.0 mph NW24.1 kmh NW 34.0 mph54.7 kmh 24.19 in819.2 mb 0.00 in0.0 mm 0.00 in0.0 mm 0.00 in0.0 mm
06:00 AM 51.7°F10.9°C 46.0°F7.8°C 81% 25.0 mph WSW40.2 kmh WSW 34.0 mph54.7 kmh 24.19 in819.2 mb 0.00 in0.0 mm 0.00 in0.0 mm 0.00 in0.0 mm
05:55 AM 51.7°F10.9°C 46.3°F7.9°C 82% 24.0 mph WSW38.6 kmh WSW 36.0 mph57.9 kmh 24.19 in819.2 mb 0.00 in0.0 mm 0.00 in0.0 mm 0.00 in0.0 mm
05:50 AM 51.8°F11.0°C 46.8°F8.2°C 83% 23.0 mph WSW37.0 kmh WSW 34.0 mph54.7 kmh 24.19 in819.2 mb 0.00 in0.0 mm 0.00 in0.0 mm 0.00 in0.0 mm
05:45 AM 51.9°F11.1°C 46.8°F8.2°C 83% 30.0 mph W48.3 kmh W 35.0 mph56.3 kmh 24.19 in819.2 mb 0.00 in0.0 mm 0.00 in0.0 mm 0.00 in0.0 mm
05:40 AM 51.8°F11.0°C 46.8°F8.2°C 83% 27.0 mph WNW43.5 kmh WNW 37.0 mph59.5 kmh 24.19 in819.2 mb 0.00 in0.0 mm 0.00 in0.0 mm 0.00 in0.0 mm
05:35 AM 52.0°F11.1°C 46.9°F8.3°C 83% 29.0 mph W46.7 kmh W 34.0 mph54.7 kmh 24.19 in819.2 mb 0.00 in0.0 mm 0.00 in0.0 mm 0.00 in0.0 mm
05:30 AM 52.3°F11.3°C 47.2°F8.4°C 83% 20.0 mph W32.2 kmh W 33.0 mph53.1 kmh 24.19 in819.2 mb 0.00 in0.0 mm 0.00 in0.0 mm 0.00 in0.0 mm
05:25 AM 52.2°F11.2°C 47.1°F8.4°C 83% 23.0 mph NW37.0 kmh NW 35.0 mph56.3 kmh 24.19 in819.2 mb 0.00 in0.0 mm 0.00 in0.0 mm 0.00 in0.0 mm
05:20 AM 52.1°F11.2°C 47.4°F8.6°C 84% 33.0 mph W53.1 kmh W 34.0 mph54.7 kmh 24.19 in819.2 mb 0.00 in0.0 mm 0.00 in0.0 mm 0.00 in0.0 mm
05:15 AM 52.0°F11.1°C 47.6°F8.7°C 85% 24.0 mph W38.6 kmh W 33.0 mph53.1 kmh 24.19 in819.2 mb 0.00 in0.0 mm 0.00 in0.0 mm 0.00 in0.0 mm
05:10 AM 51.8°F11.0°C 47.4°F8.6°C 85% 24.0 mph WSW38.6 kmh WSW 33.0 mph53.1 kmh 24.19 in819.2 mb 0.00 in0.0 mm 0.00 in0.0 mm 0.00 in0.0 mm
05:05 AM 51.7°F10.9°C 47.3°F8.5°C 85% 24.0 mph WSW38.6 kmh WSW 36.0 mph57.9 kmh 24.19 in819.2 mb 0.00 in0.0 mm 0.00 in0.0 mm 0.00 in0.0 mm
05:00 AM 51.7°F10.9°C 47.6°F8.7°C 86% 14.0 mph WSW22.5 kmh WSW 29.0 mph46.7 kmh 24.19 in819.2 mb 0.00 in0.0 mm 0.00 in0.0 mm 0.00 in0.0 mm
04:55 AM 51.6°F10.9°C 47.2°F8.4°C 85% 29.0 mph WSW46.7 kmh WSW 33.0 mph53.1 kmh 24.19 in819.2 mb 0.00 in0.0 mm 0.00 in0.0 mm 0.00 in0.0 mm
04:50 AM 51.5°F10.8°C 47.1°F8.4°C 85% 25.0 mph W40.2 kmh W 36.0 mph57.9 kmh 24.19 in819.2 mb 0.00 in0.0 mm 0.00 in0.0 mm 0.00 in0.0 mm
04:45 AM 51.4°F10.8°C 47.0°F8.3°C 85% 24.0 mph WSW38.6 kmh WSW 33.0 mph53.1 kmh 24.19 in819.2 mb 0.00 in0.0 mm 0.00 in0.0 mm 0.00 in0.0 mm
04:40 AM 51.4°F10.8°C 47.0°F8.3°C 85% 25.0 mph W40.2 kmh W 34.0 mph54.7 kmh 24.19 in819.2 mb 0.00 in0.0 mm 0.00 in0.0 mm 0.00 in0.0 mm
04:35 AM 51.3°F10.7°C 47.2°F8.4°C 86% 22.0 mph W35.4 kmh W 33.0 mph53.1 kmh 24.19 in819.2 mb 0.00 in0.0 mm 0.00 in0.0 mm 0.00 in0.0 mm
04:30 AM 51.4°F10.8°C 47.3°F8.5°C 86% 23.0 mph W37.0 kmh W 34.0 mph54.7 kmh 24.19 in819.2 mb 0.00 in0.0 mm 0.00 in0.0 mm 0.00 in0.0 mm
04:25 AM 51.2°F10.7°C 47.1°F8.4°C 86% 29.0 mph W46.7 kmh W 35.0 mph56.3 kmh 24.19 in819.2 mb 0.00 in0.0 mm 0.00 in0.0 mm 0.00 in0.0 mm
04:20 AM 51.2°F10.7°C 47.4°F8.6°C 87% 27.0 mph WSW43.5 kmh WSW 36.0 mph57.9 kmh 24.19 in819.2 mb 0.00 in0.0 mm 0.00 in0.0 mm 0.00 in0.0 mm
04:15 AM 51.3°F10.7°C 47.5°F8.6°C 87% 27.0 mph WSW43.5 kmh WSW 37.0 mph59.5 kmh 24.19 in819.2 mb 0.00 in0.0 mm 0.00 in0.0 mm 0.00 in0.0 mm
04:10 AM 51.3°F10.7°C 47.2°F8.4°C 86% 25.0 mph W40.2 kmh W 36.0 mph57.9 kmh 24.19 in819.2 mb 0.00 in0.0 mm 0.00 in0.0 mm 0.00 in0.0 mm
04:05 AM 51.3°F10.7°C 47.5°F8.6°C 87% 20.0 mph WSW32.2 kmh WSW 33.0 mph53.1 kmh 24.19 in819.2 mb 0.00 in0.0 mm 0.00 in0.0 mm 0.00 in0.0 mm
04:00 AM 51.3°F10.7°C 47.5°F8.6°C 87% 19.0 mph WSW30.6 kmh WSW 33.0 mph53.1 kmh 24.19 in819.2 mb 0.00 in0.0 mm 0.00 in0.0 mm 0.00 in0.0 mm
03:55 AM 51.3°F10.7°C 47.5°F8.6°C 87% 28.0 mph WSW45.1 kmh WSW 33.0 mph53.1 kmh 24.19 in819.2 mb 0.00 in0.0 mm 0.00 in0.0 mm 0.00 in0.0 mm
03:50 AM 51.1°F10.6°C 47.3°F8.5°C 87% 30.0 mph W48.3 kmh W 32.0 mph51.5 kmh 24.19 in819.2 mb 0.00 in0.0 mm 0.00 in0.0 mm 0.00 in0.0 mm
03:45 AM 51.3°F10.7°C 47.5°F8.6°C 87% 29.0 mph W46.7 kmh W 35.0 mph56.3 kmh 24.19 in819.2 mb 0.00 in0.0 mm 0.00 in0.0 mm 0.00 in0.0 mm
03:40 AM 51.3°F10.7°C 47.5°F8.6°C 87% 28.0 mph WNW45.1 kmh WNW 33.0 mph53.1 kmh 24.19 in819.2 mb 0.00 in0.0 mm 0.00 in0.0 mm 0.00 in0.0 mm
03:35 AM 51.3°F10.7°C 47.2°F8.4°C 86% 20.0 mph WSW32.2 kmh WSW 35.0 mph56.3 kmh 24.19 in819.2 mb 0.00 in0.0 mm 0.00 in0.0 mm 0.00 in0.0 mm
03:30 AM 51.3°F10.7°C 47.5°F8.6°C 87% 23.0 mph SW37.0 kmh SW 33.0 mph53.1 kmh 24.19 in819.2 mb 0.00 in0.0 mm 0.00 in0.0 mm 0.00 in0.0 mm
03:25 AM 51.3°F10.7°C 47.5°F8.6°C 87% 24.0 mph WSW38.6 kmh WSW 35.0 mph56.3 kmh 24.19 in819.2 mb 0.00 in0.0 mm 0.00 in0.0 mm 0.00 in0.0 mm
03:20 AM 51.2°F10.7°C 47.4°F8.6°C 87% 25.0 mph WSW40.2 kmh WSW 33.0 mph53.1 kmh 24.19 in819.2 mb 0.00 in0.0 mm 0.00 in0.0 mm 0.00 in0.0 mm
03:15 AM 51.1°F10.6°C 47.3°F8.5°C 87% 23.0 mph WSW37.0 kmh WSW 33.0 mph53.1 kmh 24.19 in819.2 mb 0.00 in0.0 mm 0.00 in0.0 mm 0.00 in0.0 mm
03:10 AM 51.1°F10.6°C 47.3°F8.5°C 87% 23.0 mph SW37.0 kmh SW 34.0 mph54.7 kmh 24.19 in819.2 mb 0.00 in0.0 mm 0.00 in0.0 mm 0.00 in0.0 mm
03:05 AM 51.1°F10.6°C 47.3°F8.5°C 87% 24.0 mph W38.6 kmh W 36.0 mph57.9 kmh 24.19 in819.2 mb 0.00 in0.0 mm 0.00 in0.0 mm 0.00 in0.0 mm
03:00 AM 51.2°F10.7°C 47.4°F8.6°C 87% 28.0 mph WSW45.1 kmh WSW 36.0 mph57.9 kmh 24.19 in819.2 mb 0.00 in0.0 mm 0.00 in0.0 mm 0.00 in0.0 mm
02:55 AM 51.2°F10.7°C 47.4°F8.6°C 87% 28.0 mph W45.1 kmh W 35.0 mph56.3 kmh 24.19 in819.2 mb 0.00 in0.0 mm 0.00 in0.0 mm 0.00 in0.0 mm
02:50 AM 51.3°F10.7°C 47.8°F8.8°C 88% 33.0 mph WSW53.1 kmh WSW 35.0 mph56.3 kmh 24.19 in819.2 mb 0.00 in0.0 mm 0.00 in0.0 mm 0.00 in0.0 mm
02:45 AM 51.3°F10.7°C 47.5°F8.6°C 87% 24.0 mph W38.6 kmh W 33.0 mph53.1 kmh 24.19 in819.2 mb 0.00 in0.0 mm 0.00 in0.0 mm 0.00 in0.0 mm
02:40 AM 51.2°F10.7°C 47.7°F8.7°C 88% 32.0 mph WSW51.5 kmh WSW 36.0 mph57.9 kmh 24.19 in819.2 mb 0.00 in0.0 mm 0.00 in0.0 mm 0.00 in0.0 mm
02:35 AM 51.2°F10.7°C 47.7°F8.7°C 88% 26.0 mph WSW41.8 kmh WSW 35.0 mph56.3 kmh 24.19 in819.2 mb 0.00 in0.0 mm 0.00 in0.0 mm 0.00 in0.0 mm
02:30 AM 51.2°F10.7°C 48.0°F8.9°C 89% 32.0 mph W51.5 kmh W 35.0 mph56.3 kmh 24.19 in819.2 mb 0.00 in0.0 mm 0.00 in0.0 mm 0.00 in0.0 mm
02:25 AM 51.2°F10.7°C 48.0°F8.9°C 89% 28.0 mph W45.1 kmh W 36.0 mph57.9 kmh 24.19 in819.2 mb 0.00 in0.0 mm 0.00 in0.0 mm 0.00 in0.0 mm
02:20 AM 51.2°F10.7°C 48.0°F8.9°C 89% 30.0 mph SW48.3 kmh SW 36.0 mph57.9 kmh 24.19 in819.2 mb 0.00 in0.0 mm 0.00 in0.0 mm 0.00 in0.0 mm
02:15 AM 51.2°F10.7°C 48.0°F8.9°C 89% 25.0 mph WSW40.2 kmh WSW 35.0 mph56.3 kmh 24.19 in819.2 mb 0.00 in0.0 mm 0.00 in0.0 mm 0.00 in0.0 mm
02:10 AM 51.2°F10.7°C 48.0°F8.9°C 89% 31.0 mph W49.9 kmh W 36.0 mph57.9 kmh 24.19 in819.2 mb 0.00 in0.0 mm 0.00 in0.0 mm 0.00 in0.0 mm
02:05 AM 51.2°F10.7°C 47.7°F8.7°C 88% 23.0 mph SW37.0 kmh SW 34.0 mph54.7 kmh 24.19 in819.2 mb 0.00 in0.0 mm 0.00 in0.0 mm 0.00 in0.0 mm
02:00 AM 51.1°F10.6°C 47.6°F8.7°C 88% 29.0 mph WSW46.7 kmh WSW 40.0 mph64.4 kmh 24.19 in819.2 mb 0.00 in0.0 mm 0.00 in0.0 mm 0.00 in0.0 mm
01:55 AM 51.4°F10.8°C 47.9°F8.8°C 88% 26.0 mph WSW41.8 kmh WSW 35.0 mph56.3 kmh 24.19 in819.2 mb 0.00 in0.0 mm 0.00 in0.0 mm 0.00 in0.0 mm
01:50 AM 51.5°F10.8°C 48.0°F8.9°C 88% 21.0 mph W33.8 kmh W 35.0 mph56.3 kmh 24.19 in819.2 mb 0.00 in0.0 mm 0.00 in0.0 mm 0.00 in0.0 mm
01:45 AM 51.6°F10.9°C 47.8°F8.8°C 87% 24.0 mph W38.6 kmh W 39.0 mph62.8 kmh 24.19 in819.2 mb 0.00 in0.0 mm 0.00 in0.0 mm 0.00 in0.0 mm
01:40 AM 51.7°F10.9°C 47.9°F8.8°C 87% 21.0 mph WSW33.8 kmh WSW 33.0 mph53.1 kmh 24.19 in819.2 mb 0.00 in0.0 mm 0.00 in0.0 mm 0.00 in0.0 mm
01:35 AM 51.6°F10.9°C 47.8°F8.8°C 87% 30.0 mph WSW48.3 kmh WSW 39.0 mph62.8 kmh 24.19 in819.2 mb 0.00 in0.0 mm 0.00 in0.0 mm 0.00 in0.0 mm
01:30 AM 51.7°F10.9°C 47.9°F8.8°C 87% 25.0 mph WSW40.2 kmh WSW 34.0 mph54.7 kmh 24.19 in819.2 mb 0.00 in0.0 mm 0.00 in0.0 mm 0.00 in0.0 mm
01:25 AM 51.6°F10.9°C 47.8°F8.8°C 87% 20.0 mph WNW32.2 kmh WNW 39.0 mph62.8 kmh 24.19 in819.2 mb 0.00 in0.0 mm 0.00 in0.0 mm 0.00 in0.0 mm
01:20 AM 51.6°F10.9°C 47.8°F8.8°C 87% 28.0 mph WSW45.1 kmh WSW 40.0 mph64.4 kmh 24.19 in819.2 mb 0.00 in0.0 mm 0.00 in0.0 mm 0.00 in0.0 mm
01:15 AM 51.8°F11.0°C 48.0°F8.9°C 87% 29.0 mph SW46.7 kmh SW 38.0 mph61.2 kmh 24.19 in819.2 mb 0.00 in0.0 mm 0.00 in0.0 mm 0.00 in0.0 mm
01:10 AM 51.8°F11.0°C 48.0°F8.9°C 87% 27.0 mph WSW43.5 kmh WSW 36.0 mph57.9 kmh 24.19 in819.2 mb 0.00 in0.0 mm 0.00 in0.0 mm 0.00 in0.0 mm
01:05 AM 51.8°F11.0°C 48.0°F8.9°C 87% 35.0 mph WSW56.3 kmh WSW 37.0 mph59.5 kmh 24.19 in819.2 mb 0.00 in0.0 mm 0.00 in0.0 mm 0.00 in0.0 mm
01:00 AM 51.8°F11.0°C 48.0°F8.9°C 87% 33.0 mph WSW53.1 kmh WSW 40.0 mph64.4 kmh 24.19 in819.2 mb 0.00 in0.0 mm 0.00 in0.0 mm 0.00 in0.0 mm
12:55 AM 51.9°F11.1°C 47.8°F8.8°C 86% 27.0 mph W43.5 kmh W 38.0 mph61.2 kmh 24.19 in819.2 mb 0.00 in0.0 mm 0.00 in0.0 mm 0.00 in0.0 mm
12:50 AM 52.1°F11.2°C 48.0°F8.9°C 86% 33.0 mph WSW53.1 kmh WSW 38.0 mph61.2 kmh 24.19 in819.2 mb 0.00 in0.0 mm 0.00 in0.0 mm 0.00 in0.0 mm
12:45 AM 52.1°F11.2°C 48.0°F8.9°C 86% 31.0 mph WSW49.9 kmh WSW 38.0 mph61.2 kmh 24.19 in819.2 mb 0.00 in0.0 mm 0.00 in0.0 mm 0.00 in0.0 mm
12:40 AM 52.2°F11.2°C 48.1°F8.9°C 86% 31.0 mph W49.9 kmh W 34.0 mph54.7 kmh 24.19 in819.2 mb 0.00 in0.0 mm 0.00 in0.0 mm 0.00 in0.0 mm
12:35 AM 52.2°F11.2°C 48.1°F8.9°C 86% 27.0 mph SW43.5 kmh SW 33.0 mph53.1 kmh 24.19 in819.2 mb 0.00 in0.0 mm 0.00 in0.0 mm 0.00 in0.0 mm
12:30 AM 52.1°F11.2°C 48.0°F8.9°C 86% 27.0 mph WSW43.5 kmh WSW 35.0 mph56.3 kmh 24.19 in819.2 mb 0.00 in0.0 mm 0.00 in0.0 mm 0.00 in0.0 mm
12:25 AM 52.1°F11.2°C 48.0°F8.9°C 86% 28.0 mph WSW45.1 kmh WSW 39.0 mph62.8 kmh 24.19 in819.2 mb 0.00 in0.0 mm 0.00 in0.0 mm 0.00 in0.0 mm
12:20 AM 52.4°F11.3°C 48.6°F9.2°C 87% 27.0 mph WSW43.5 kmh WSW 35.0 mph56.3 kmh 24.19 in819.2 mb 0.00 in0.0 mm 0.00 in0.0 mm 0.00 in0.0 mm
12:15 AM 52.3°F11.3°C 48.2°F9.0°C 86% 25.0 mph WSW40.2 kmh WSW 37.0 mph59.5 kmh 24.19 in819.2 mb 0.00 in0.0 mm 0.00 in0.0 mm 0.00 in0.0 mm
12:10 AM 52.4°F11.3°C 48.0°F8.9°C 85% 30.0 mph W48.3 kmh W 41.0 mph66.0 kmh 24.19 in819.2 mb 0.00 in0.0 mm 0.00 in0.0 mm 0.00 in0.0 mm
12:05 AM 52.6°F11.4°C 48.5°F9.2°C 86% 31.0 mph WSW49.9 kmh WSW 36.0 mph57.9 kmh 24.19 in819.2 mb 0.00 in0.0 mm 0.00 in0.0 mm 0.00 in0.0 mm
12:00 AM 52.6°F11.4°C 48.5°F9.2°C 86% 24.0 mph WSW38.6 kmh WSW 35.0 mph56.3 kmh 24.19 in819.2 mb 0.00 in0.0 mm 0.00 in0.0 mm 0.00 in0.0 mm